Tempos de volta de RENTAL PROVA 4 - 19:30
KARTODROMO INTERMNACIONAL GRANJA VIANA a funcionar KGV RACE TRACKS - CIRCUITO 105
Tempos de volta de RENTAL - PROVA 4 - 19:30


Hora do dia Volta Volta do Líder Volta Tm Velocidade
015 - RODOLFO ARAUJO - RENTAL
19:39:42.850 1 1 42.063 62,478
19:40:24.886 2 2 42.036 62,518
19:41:07.098 3 3 42.212 62,257
19:41:49.536 4 4 42.438 61,926
19:42:31.614 5 5 42.078 62,455
19:43:13.672 6 6 42.058 62,485
19:43:55.891 7 7 42.219 62,247
19:44:38.426 8 8 42.535 61,784
19:45:22.204 9 9 43.778 60,030
19:46:04.885 10 10 42.681 61,573
19:46:47.160 11 11 42.275 62,164
19:47:29.286 12 12 42.126 62,384
19:48:12.279 13 13 42.993 61,126
19:48:54.348 14 14 42.069 62,469
19:49:36.511 15 15 42.163 62,330
19:50:18.843 16 16 42.332 62,081
19:51:01.222 17 17 42.379 62,012
19:51:43.416 18 18 42.194 62,284
19:52:25.476 19 19 42.060 62,482
19:53:08.114 20 20 42.638 61,635
19:53:50.416 21 21 42.302 62,125
020 - MARCELO PINELLA - RENTAL
19:39:43.652 1 1 42.235 62,223
19:40:25.728 2 2 42.076 62,458
19:41:07.774 3 3 42.046 62,503
19:41:50.048 4 4 42.274 62,166
19:42:32.180 5 5 42.132 62,375
19:43:14.553 6 6 42.373 62,021
19:43:56.511 7 7 41.958 62,634
19:44:38.705 8 8 42.194 62,284
19:45:22.420 9 9 43.715 60,117
19:46:05.294 10 10 42.874 61,296
19:46:47.464 11 11 42.170 62,319
19:47:29.635 12 12 42.171 62,318
19:48:13.314 13 13 43.679 60,166
19:48:55.657 14 14 42.343 62,065
19:49:38.053 15 15 42.396 61,987
19:50:20.246 16 16 42.193 62,285
19:51:02.376 17 17 42.130 62,378
19:51:44.953 18 18 42.577 61,723
19:52:27.274 19 19 42.321 62,097
19:53:10.094 20 20 42.820 61,373
19:53:52.123 21 21 42.029 62,528
004 - RODRIGO PINHEIRO - RENTAL
19:39:42.650 1 1 42.248 62,204
19:40:24.667 2 2 42.017 62,546
19:41:06.999 3 3 42.332 62,081
19:41:49.091 4 4 42.092 62,435
19:42:31.320 5 5 42.229 62,232
19:43:13.544 6 6 42.224 62,239
19:43:55.785 7 7 42.241 62,214
19:44:37.947 8 8 42.162 62,331
19:45:20.258 9 9 42.311 62,112
19:46:03.025 10 10 42.767 61,449
19:46:45.333 11 11 42.308 62,116
19:47:27.592 12 12 42.259 62,188
19:48:10.109 13 13 42.517 61,811
19:48:52.594 14 14 42.485 61,857
19:49:37.589 15 15 44.995 58,406
19:50:20.573 16 16 42.984 61,139
19:51:03.211 17 17 42.638 61,635
19:51:45.774 18 18 42.563 61,744
19:52:28.269 19 19 42.495 61,843
19:53:10.225 20 20 41.956 62,637
19:53:52.650 21 21 42.425 61,945
027 - RAPHAEL SEMAAN - RENTAL
19:39:43.559 1 1 42.236 62,222
19:40:25.617 2 2 42.058 62,485
19:41:07.683 3 3 42.066 62,473
19:41:49.901 4 4 42.218 62,248
19:42:32.079 5 5 42.178 62,307
19:43:14.282 6 6 42.203 62,270
19:43:56.417 7 7 42.135 62,371
19:44:38.545 8 8 42.128 62,381
19:45:22.147 9 9 43.602 60,272
19:46:05.197 10 10 43.050 61,045
19:46:47.373 11 11 42.176 62,310
19:47:29.517 12 12 42.144 62,358
19:48:12.735 13 13 43.218 60,808
19:48:55.541 14 14 42.806 61,393
19:49:37.962 15 15 42.421 61,950
19:50:20.189 16 16 42.227 62,235
19:51:03.113 17 17 42.924 61,224
19:51:45.643 18 18 42.530 61,792
19:52:28.158 19 19 42.515 61,813
19:53:11.095 20 20 42.937 61,206
19:53:53.800 21 21 42.705 61,538
033 - RAFAEL NAGAHASHI - RENTAL
19:39:48.971 1 1 43.518 60,389
19:40:32.174 2 2 43.203 60,829
19:41:16.278 3 3 44.104 59,586
19:41:59.482 4 4 43.204 60,828
19:42:43.070 5 5 43.588 60,292
19:43:27.731 6 6 44.661 58,843
19:44:11.588 7 7 43.857 59,922
19:44:54.131 8 8 42.543 61,773
19:45:36.869 9 9 42.738 61,491
19:46:19.901 10 10 43.032 61,071
19:47:04.082 11 11 44.181 59,483
19:47:46.681 12 12 42.599 61,692
19:48:29.978 13 13 43.297 60,697
19:49:13.580 14 14 43.602 60,272
19:49:56.944 15 15 43.364 60,603
19:50:40.137 16 16 43.193 60,843
19:51:22.652 17 17 42.515 61,813
19:52:06.311 18 18 43.659 60,194
19:52:49.287 19 19 42.976 61,150
19:53:32.013 20 20 42.726 61,508
19:54:15.082 21 21 43.069 61,018
031 - WILLY AUGUSTO - RENTAL
19:39:48.194 1 1 43.334 60,645
19:40:31.556 2 2 43.362 60,606
19:41:15.026 3 3 43.470 60,455
19:41:58.440 4 4 43.414 60,533
19:42:41.509 5 5 43.069 61,018
19:43:25.105 6 6 43.596 60,281
19:44:08.750 7 7 43.645 60,213
19:44:52.206 8 8 43.456 60,475
19:45:35.652 9 9 43.446 60,489
19:46:18.861 10 10 43.209 60,821
19:47:02.357 11 11 43.496 60,419
19:47:45.750 12 12 43.393 60,563
19:48:29.175 13 13 43.425 60,518
19:49:12.636 14 14 43.461 60,468
19:49:56.018 15 15 43.382 60,578
19:50:39.629 16 16 43.611 60,260
19:51:22.551 17 17 42.922 61,227
19:52:06.793 18 18 44.242 59,401
19:52:49.586 19 19 42.793 61,412
19:53:32.611 20 20 43.025 61,081
19:54:15.420 21 21 42.809 61,389
006 - MATHEUS FIRMINO - RENTAL
19:39:47.485 1 1 43.092 60,986
19:40:30.909 2 2 43.424 60,520
19:41:14.781 3 3 43.872 59,902
19:42:00.598 4 4 45.817 57,359
19:42:43.865 5 5 43.267 60,739
19:43:28.014 6 6 44.149 59,526
19:44:13.134 7 7 45.120 58,245
19:44:56.010 8 8 42.876 61,293
19:45:39.822 9 9 43.812 59,984
19:46:24.321 10 10 44.499 59,058
19:47:07.480 11 11 43.159 60,891
19:47:51.451 12 12 43.971 59,767
19:48:35.339 13 13 43.888 59,880
19:49:18.737 14 14 43.398 60,556
19:50:01.813 15 15 43.076 61,008
19:50:44.267 16 16 42.454 61,902
19:51:27.050 17 17 42.783 61,426
19:52:10.425 18 18 43.375 60,588
19:52:52.999 19 19 42.574 61,728
19:53:36.070 20 20 43.071 61,016
19:54:16.594 21 21 40.524 64,850
017 - BRUNO CATERINA - RENTAL
19:39:47.628 1 1 43.434 60,506
19:40:31.392 2 2 43.764 60,049
19:41:15.444 3 3 44.052 59,657
19:41:58.878 4 4 43.434 60,506
19:42:42.611 5 5 43.733 60,092
19:43:26.113 6 6 43.502 60,411
19:44:09.605 7 7 43.492 60,425
19:44:52.802 8 8 43.197 60,838
19:45:36.124 9 9 43.322 60,662
19:46:19.001 10 10 42.877 61,292
19:47:02.850 11 11 43.849 59,933
19:47:46.011 12 12 43.161 60,888
19:48:29.570 13 13 43.559 60,332
19:49:13.713 14 14 44.143 59,534
19:49:57.118 15 15 43.405 60,546
19:50:40.683 16 16 43.565 60,324
19:51:23.829 17 17 43.146 60,909
19:52:07.076 18 18 43.247 60,767
19:52:50.111 19 19 43.035 61,067
19:53:33.381 20 20 43.270 60,735
19:54:16.662 21 21 43.281 60,719
002 - JOSUEL ROSALINO - RENTAL
19:39:49.282 1 1 43.709 60,125
19:40:32.831 2 2 43.549 60,346
19:41:15.934 3 3 43.103 60,970
19:42:02.193 4 4 46.259 56,811
19:42:45.356 5 5 43.163 60,885
19:43:28.498 6 6 43.142 60,915
19:44:13.036 7 7 44.538 59,006
19:44:55.863 8 8 42.827 61,363
19:45:40.443 9 9 44.580 58,950
19:46:25.254 10 10 44.811 58,646
19:47:08.298 11 11 43.044 61,054
19:47:51.664 12 12 43.366 60,600
19:48:34.827 13 13 43.163 60,885
19:49:17.330 14 14 42.503 61,831
19:50:00.132 15 15 42.802 61,399
19:50:43.191 16 16 43.059 61,033
19:51:26.143 17 17 42.952 61,185
19:52:09.846 18 18 43.703 60,133
19:52:52.528 19 19 42.682 61,572
19:53:35.720 20 20 43.192 60,845
19:54:18.864 21 21 43.144 60,912
001 - RICARDO ESTELITA - RENTAL
19:39:48.608 1 1 43.241 60,776
19:40:32.102 2 2 43.494 60,422
19:41:15.755 3 3 43.653 60,202
19:41:59.389 4 4 43.634 60,228
19:42:43.264 5 5 43.875 59,897
19:43:27.916 6 6 44.652 58,855
19:44:11.955 7 7 44.039 59,674
19:44:55.285 8 8 43.330 60,651
19:45:39.649 9 9 44.364 59,237
19:46:23.742 10 10 44.093 59,601
19:47:07.229 11 11 43.487 60,432
19:47:51.112 12 12 43.883 59,887
19:48:35.084 13 13 43.972 59,765
19:49:18.241 14 14 43.157 60,894
19:50:02.632 15 15 44.391 59,201
19:50:46.139 16 16 43.507 60,404
19:51:29.707 17 17 43.568 60,320
19:52:13.425 18 18 43.718 60,113
19:52:56.807 19 19 43.382 60,578
19:53:40.323 20 20 43.516 60,392
19:54:23.913 21 21 43.590 60,289
013 - WAGNER JOSÉ - RENTAL
19:39:53.199 1 1 43.796 60,005
19:40:36.462 2 2 43.263 60,745
19:41:20.401 3 3 43.939 59,810
19:42:03.883 4 4 43.482 60,439
19:42:47.683 5 5 43.800 60,000
19:43:31.075 6 6 43.392 60,564
19:44:15.610 7 7 44.535 59,010
19:45:05.689 8 8 50.079 52,477
19:45:48.833 9 9 43.144 60,912
19:46:32.292 10 10 43.459 60,471
19:47:15.634 11 11 43.342 60,634
19:47:59.420 12 12 43.786 60,019
19:48:42.871 13 13 43.451 60,482
19:49:26.180 14 14 43.309 60,680
19:50:09.984 15 15 43.804 59,995
19:50:53.737 16 16 43.753 60,064
19:51:36.955 17 17 43.218 60,808
19:52:20.152 18 18 43.197 60,838
19:53:03.541 19 19 43.389 60,568
19:53:46.888 20 20 43.347 60,627
19:54:30.444 21 21 43.556 60,336
023 - VALDEMIR SOUZA - RENTAL
19:39:51.397 1 1 44.157 59,515
19:40:35.937 2 2 44.540 59,003
19:41:19.810 3 3 43.873 59,900
19:42:03.685 4 4 43.875 59,897
19:42:47.197 5 5 43.512 60,397
19:43:30.950 6 6 43.753 60,064
19:44:14.846 7 7 43.896 59,869
19:44:58.421 8 8 43.575 60,310
19:45:42.318 9 9 43.897 59,867
19:46:25.958 10 10 43.640 60,220
19:47:09.336 11 11 43.378 60,584
19:47:53.204 12 12 43.868 59,907
19:48:36.947 13 13 43.743 60,078
19:49:20.964 14 14 44.017 59,704
19:50:05.295 15 15 44.331 59,281
19:50:49.208 16 16 43.913 59,846
19:51:33.472 17 17 44.264 59,371
19:52:17.137 18 18 43.665 60,186
19:53:01.340 19 19 44.203 59,453
19:53:45.931 20 20 44.591 58,936
19:54:30.493 21 21 44.562 58,974
034 - LEONARDO MOREIRA - RENTAL
19:39:51.237 1 1 44.500 59,056
19:40:35.222 2 2 43.985 59,748
19:41:19.171 3 3 43.949 59,797
19:42:03.029 4 4 43.858 59,921
19:42:47.370 5 5 44.341 59,268
19:43:31.554 6 6 44.184 59,479
19:44:15.295 7 7 43.741 60,081
19:44:59.480 8 8 44.185 59,477
19:45:44.141 9 9 44.661 58,843
19:46:28.410 10 10 44.269 59,364
19:47:12.927 11 11 44.517 59,034
19:47:57.246 12 12 44.319 59,297
19:48:41.513 13 13 44.267 59,367
19:49:25.558 14 14 44.045 59,666
19:50:10.256 15 15 44.698 58,795
19:50:54.318 16 16 44.062 59,643
19:51:38.723 17 17 44.405 59,183
19:52:22.955 18 18 44.232 59,414
19:53:07.106 19 19 44.151 59,523
19:53:51.143 20 21 44.037 59,677
026 - VALDEMIR MENEZES - RENTAL
19:40:30.745 1 2 44.507 59,047
19:41:14.602 2 3 43.857 59,922
19:41:58.547 3 4 43.945 59,802
19:42:42.812 4 5 44.265 59,370
19:43:27.503 5 6 44.691 58,804
19:44:10.552 6 7 43.049 61,047
19:44:53.899 7 8 43.347 60,627
19:45:36.725 8 9 42.826 61,365
19:46:19.971 9 10 43.246 60,769
19:47:03.244 10 11 43.273 60,731
19:47:46.370 11 12 43.126 60,938
19:48:29.772 12 13 43.402 60,550
19:49:14.035 13 14 44.263 59,372
19:49:57.264 14 15 43.229 60,793
19:50:40.973 15 16 43.709 60,125
19:51:24.136 16 17 43.163 60,885
19:52:07.418 17 18 43.282 60,718
19:52:50.661 18 19 43.243 60,773
19:53:33.644 19 20 42.983 61,140
19:54:17.339 20 21 43.695 60,144
021 - FELIPE MARCONDES - RENTAL
19:39:54.870 1 1 45.559 57,683
19:40:39.654 2 2 44.784 58,682
19:41:24.807 3 3 45.153 58,202
19:42:09.701 4 4 44.894 58,538
19:42:54.860 5 5 45.159 58,194
19:43:40.082 6 6 45.222 58,113
19:44:25.166 7 7 45.084 58,291
19:45:10.309 8 8 45.143 58,215
19:45:55.994 9 9 45.685 57,524
19:46:41.346 10 10 45.352 57,947
19:47:26.515 11 11 45.169 58,181
19:48:15.004 12 13 48.489 54,198
19:49:00.101 13 14 45.097 58,274
19:49:45.821 14 15 45.720 57,480
19:50:31.115 15 16 45.294 58,021
19:51:16.096 16 17 44.981 58,425
19:52:01.207 17 18 45.111 58,256
19:52:46.045 18 19 44.838 58,611
19:53:31.109 19 20 45.064 58,317
19:54:17.644 20 21 46.535 56,474
008 - FERNANDO KRAML - RENTAL
19:40:08.654 1 1 50.746 51,787
19:40:59.125 2 2 50.471 52,070
19:41:49.230 3 4 50.105 52,450
19:42:38.560 4 5 49.330 53,274
19:44:04.135 5 7 1:25.575 30,710
Gerada em 10/06/2019 21:06